Terminal Aerodrome Forecast
Issued by NWS

Home | Current Version | Previous Version | Text Only | Print | Product List | Glossary On
Versions: 1 2 3 4 5 6 7 8 9 10 11 12 13
000
FTUS42 KMLB 031122
TAFFPR
TAF
KFPR 031122Z 0312/0412 05005KT P6SM FEW035
     FM031400 08012KT P6SM FEW040
     FM031700 08015G20KT P6SM SCT040
     FM040000 08011KT P6SM FEW040=

USA.gov is the U.S. government's official web portal to all federal, state and local government web resources and services.